Terminal Aerodrome Forecast
Issued by NWS Paducah, KY

Home | Current Version | Previous Version | Text Only | Print | Product List | Glossary Off
Versions: 1 2 3 4 5 6 7 8 9 10 11 12 13 14 15 16 17 18 19 20 21 22 23 24 25 26

000
FTUS43 KPAH 172320
TAFEVV
TAF
KEVV 172320Z 1800/1824 13003KT P6SM FEW040 SCT250
     FM180500 00000KT 4SM BR FEW040
     FM181400 09005KT P6SM SCT250=

USA.gov is the U.S. government's official web portal to all federal, state and local government web resources and services.